sensor_id;sensor_type;location;lat;lon;timestamp;pressure;altitude;pressure_sealevel;temperature;humidity
21828;BME280;11076;47.942;11.804;2023-10-31T00:00:46;92810.88;;;20.78;48.45
21828;BME280;11076;47.942;11.804;2023-10-31T00:05:48;92826.00;;;20.53;48.52
21828;BME280;11076;47.942;11.804;2023-10-31T00:10:51;92821.41;;;20.88;47.77
21828;BME280;11076;47.942;11.804;2023-10-31T00:15:53;92835.16;;;20.74;47.55
21828;BME280;11076;47.942;11.804;2023-10-31T00:20:56;92836.34;;;20.16;48.34
21828;BME280;11076;47.942;11.804;2023-10-31T00:25:59;92839.06;;;20.16;48.29
21828;BME280;11076;47.942;11.804;2023-10-31T00:31:01;92851.09;;;20.50;nan
21828;BME280;11076;47.942;11.804;2023-10-31T00:36:06;92831.91;;;20.20;48.16
21828;BME280;11076;47.942;11.804;2023-10-31T00:41:09;92841.97;;;20.37;47.70
21828;BME280;11076;47.942;11.804;2023-10-31T00:46:12;92839.75;;;20.48;47.51
21828;BME280;11076;47.942;11.804;2023-10-31T00:51:14;92848.22;;;20.37;47.56
21828;BME280;11076;47.942;11.804;2023-10-31T00:56:17;92845.50;;;20.46;47.29
21828;BME280;11076;47.942;11.804;2023-10-31T01:01:19;92826.69;;;20.67;46.65
21828;BME280;11076;47.942;11.804;2023-10-31T01:06:22;92829.25;;;20.63;46.23
21828;BME280;11076;47.942;11.804;2023-10-31T01:11:24;92831.75;;;20.42;46.44
21828;BME280;11076;47.942;11.804;2023-10-31T01:16:26;92839.75;;;20.48;46.15
21828;BME280;11076;47.942;11.804;2023-10-31T01:21:29;92814.97;;;20.49;45.96
21828;BME280;11076;47.942;11.804;2023-10-31T01:26:31;92827.47;;;20.59;45.41
21828;BME280;11076;47.942;11.804;2023-10-31T01:31:34;92834.16;;;20.53;45.34
21828;BME280;11076;47.942;11.804;2023-10-31T01:36:43;92839.75;;;20.48;45.28
21828;BME280;11076;47.942;11.804;2023-10-31T01:41:45;92842.91;;;20.32;45.50
21828;BME280;11076;47.942;11.804;2023-10-31T01:46:48;92861.72;;;20.20;45.53
21828;BME280;11076;47.942;11.804;2023-10-31T01:51:51;92874.22;;;20.38;45.37
21828;BME280;11076;47.942;11.804;2023-10-31T01:56:56;92876.78;;;20.43;45.19
21828;BME280;11076;47.942;11.804;2023-10-31T02:02:00;92873.97;;;20.66;44.86
21828;BME280;11076;47.942;11.804;2023-10-31T02:07:05;92879.69;;;20.56;44.87
21828;BME280;11076;47.942;11.804;2023-10-31T02:12:08;92892.69;;;20.19;45.49
21828;BME280;11076;47.942;11.804;2023-10-31T02:17:10;92879.59;;;20.21;45.51
21828;BME280;11076;47.942;11.804;2023-10-31T02:22:13;92882.28;;;20.12;45.81
21828;BME280;11076;47.942;11.804;2023-10-31T02:27:15;92877.16;;;20.59;44.90
21828;BME280;11076;47.942;11.804;2023-10-31T02:32:17;92900.28;;;19.68;46.83
21828;BME280;11076;47.942;11.804;2023-10-31T02:37:20;92909.22;;;20.00;46.23
21828;BME280;11076;47.942;11.804;2023-10-31T02:42:22;92895.31;;;20.41;45.22
21828;BME280;11076;47.942;11.804;2023-10-31T02:47:25;92895.75;;;20.35;45.10
21828;BME280;11076;47.942;11.804;2023-10-31T02:52:27;92925.59;;;20.35;45.24
21828;BME280;11076;47.942;11.804;2023-10-31T02:57:30;92935.53;;;20.39;45.00
21828;BME280;11076;47.942;11.804;2023-10-31T03:02:32;92929.81;;;20.50;44.73
21828;BME280;11076;47.942;11.804;2023-10-31T03:07:35;92920.75;;;20.63;44.35
21828;BME280;11076;47.942;11.804;2023-10-31T03:12:37;92925.78;;;20.38;44.92
21828;BME280;11076;47.942;11.804;2023-10-31T03:17:39;92934.91;;;20.51;44.73
21828;BME280;11076;47.942;11.804;2023-10-31T03:22:42;92958.25;;;20.61;44.47
21828;BME280;11076;47.942;11.804;2023-10-31T03:27:44;92943.47;;;21.02;43.69
21828;BME280;11076;47.942;11.804;2023-10-31T03:32:47;92945.53;;;20.88;43.71
21828;BME280;11076;47.942;11.804;2023-10-31T03:37:49;92966.00;;;21.02;43.44
21828;BME280;11076;47.942;11.804;2023-10-31T03:42:51;92959.25;;;20.82;43.95
21828;BME280;11076;47.942;11.804;2023-10-31T03:47:54;92955.13;;;20.85;43.90
21828;BME280;11076;47.942;11.804;2023-10-31T03:52:56;92954.66;;;20.34;45.00
21828;BME280;11076;47.942;11.804;2023-10-31T03:57:59;92964.97;;;19.83;45.78
21828;BME280;11076;47.942;11.804;2023-10-31T04:03:02;92970.28;;;19.97;45.55
21828;BME280;11076;47.942;11.804;2023-10-31T04:08:04;92977.53;;;19.79;45.72
21828;BME280;11076;47.942;11.804;2023-10-31T04:13:07;92975.81;;;19.61;45.77
21828;BME280;11076;47.942;11.804;2023-10-31T04:18:09;92983.28;;;19.78;45.36
21828;BME280;11076;47.942;11.804;2023-10-31T04:23:12;92994.00;;;20.14;44.54
21828;BME280;11076;47.942;11.804;2023-10-31T04:28:15;92977.84;;;19.55;45.50
21828;BME280;11076;47.942;11.804;2023-10-31T04:33:17;92975.06;;;19.92;44.91
21828;BME280;11076;47.942;11.804;2023-10-31T04:38:19;92971.81;;;20.12;44.58
21828;BME280;11076;47.942;11.804;2023-10-31T04:43:23;92963.41;;;19.91;44.58
21828;BME280;11076;47.942;11.804;2023-10-31T04:48:25;92975.50;;;20.16;44.24
21828;BME280;11076;47.942;11.804;2023-10-31T04:53:28;92984.09;;;20.10;44.33
21828;BME280;11076;47.942;11.804;2023-10-31T04:58:31;92980.66;;;19.95;44.67
21828;BME280;11076;47.942;11.804;2023-10-31T05:03:33;92969.34;;;19.71;44.99
21828;BME280;11076;47.942;11.804;2023-10-31T05:08:35;92980.03;;;19.98;44.31
21828;BME280;11076;47.942;11.804;2023-10-31T05:13:38;92987.44;;;19.61;44.99
21828;BME280;11076;47.942;11.804;2023-10-31T05:18:41;93005.91;;;20.04;44.00
21828;BME280;11076;47.942;11.804;2023-10-31T05:23:44;93014.34;;;20.03;44.01
21828;BME280;11076;47.942;11.804;2023-10-31T05:28:46;93019.09;;;20.20;43.53
21828;BME280;11076;47.942;11.804;2023-10-31T05:33:48;93024.06;;;20.26;43.40
21828;BME280;11076;47.942;11.804;2023-10-31T05:38:51;93030.19;;;20.41;43.09
21828;BME280;11076;47.942;11.804;2023-10-31T05:43:53;93027.72;;;20.22;43.57
21828;BME280;11076;47.942;11.804;2023-10-31T05:48:56;93021.44;;;20.53;44.49
21828;BME280;11076;47.942;11.804;2023-10-31T05:53:59;93041.72;;;20.86;44.25
21828;BME280;11076;47.942;11.804;2023-10-31T05:59:02;93058.47;;;20.17;44.21
21828;BME280;11076;47.942;11.804;2023-10-31T06:04:04;93067.16;;;20.28;43.51
21828;BME280;11076;47.942;11.804;2023-10-31T06:09:07;93052.63;;;20.24;43.59
21828;BME280;11076;47.942;11.804;2023-10-31T06:14:11;93062.09;;;20.35;43.39
21828;BME280;11076;47.942;11.804;2023-10-31T06:19:13;93066.78;;;20.21;43.51
21828;BME280;11076;47.942;11.804;2023-10-31T06:24:16;93073.84;;;20.22;43.51
21828;BME280;11076;47.942;11.804;2023-10-31T06:29:18;93067.28;;;19.92;44.31
21828;BME280;11076;47.942;11.804;2023-10-31T06:34:28;93089.22;;;20.04;44.25
21828;BME280;11076;47.942;11.804;2023-10-31T06:39:30;93094.25;;;19.97;44.48
21828;BME280;11076;47.942;11.804;2023-10-31T06:44:33;93113.41;;;20.45;43.87
21828;BME280;11076;47.942;11.804;2023-10-31T06:49:35;93108.56;;;20.42;43.78
21828;BME280;11076;47.942;11.804;2023-10-31T06:54:40;93101.59;;;19.96;44.90
21828;BME280;11076;47.942;11.804;2023-10-31T06:59:42;93107.16;;;20.14;44.46
21828;BME280;11076;47.942;11.804;2023-10-31T07:04:45;93108.72;;;20.37;44.00
21828;BME280;11076;47.942;11.804;2023-10-31T07:09:47;93105.53;;;20.13;44.50
21828;BME280;11076;47.942;11.804;2023-10-31T07:14:49;93100.34;;;20.02;44.64
21828;BME280;11076;47.942;11.804;2023-10-31T07:19:52;93101.97;;;20.03;44.33
21828;BME280;11076;47.942;11.804;2023-10-31T07:24:54;93106.97;;;20.10;44.39
21828;BME280;11076;47.942;11.804;2023-10-31T07:29:57;93117.50;;;20.12;43.60
21828;BME280;11076;47.942;11.804;2023-10-31T07:34:59;93123.16;;;20.01;43.64
21828;BME280;11076;47.942;11.804;2023-10-31T07:40:02;93146.22;;;20.13;43.17
21828;BME280;11076;47.942;11.804;2023-10-31T07:45:06;93147.16;;;20.08;43.26
21828;BME280;11076;47.942;11.804;2023-10-31T07:50:09;93153.81;;;20.24;43.20
21828;BME280;11076;47.942;11.804;2023-10-31T07:55:12;93171.69;;;20.48;42.80
21828;BME280;11076;47.942;11.804;2023-10-31T08:00:16;93165.19;;;20.58;42.72
21828;BME280;11076;47.942;11.804;2023-10-31T08:05:18;93162.38;;;20.63;42.31
21828;BME280;11076;47.942;11.804;2023-10-31T08:10:21;93153.63;;;20.43;42.55
21828;BME280;11076;47.942;11.804;2023-10-31T08:15:23;93182.34;;;20.44;42.67
21828;BME280;11076;47.942;11.804;2023-10-31T08:20:26;93216.88;;;20.53;42.54
21828;BME280;11076;47.942;11.804;2023-10-31T08:25:28;93241.88;;;20.41;42.85
21828;BME280;11076;47.942;11.804;2023-10-31T08:30:31;93235.66;;;20.40;42.85
21828;BME280;11076;47.942;11.804;2023-10-31T08:35:33;93227.75;;;20.08;43.38
21828;BME280;11076;47.942;11.804;2023-10-31T08:40:36;93224.97;;;19.85;43.64
21828;BME280;11076;47.942;11.804;2023-10-31T08:45:39;93223.88;;;19.86;43.37
21828;BME280;11076;47.942;11.804;2023-10-31T08:50:41;93224.03;;;20.03;43.04
21828;BME280;11076;47.942;11.804;2023-10-31T08:55:44;93231.06;;;20.27;42.67
21828;BME280;11076;47.942;11.804;2023-10-31T09:00:47;93235.78;;;20.58;41.69
21828;BME280;11076;47.942;11.804;2023-10-31T09:05:49;93235.34;;;20.42;41.84
21828;BME280;11076;47.942;11.804;2023-10-31T09:10:51;93235.25;;;20.33;42.33
21828;BME280;11076;47.942;11.804;2023-10-31T09:15:54;93244.38;;;20.15;42.84
21828;BME280;11076;47.942;11.804;2023-10-31T09:20:56;93247.44;;;20.36;42.36
21828;BME280;11076;47.942;11.804;2023-10-31T09:39:12;93250.09;;;20.50;41.81
21828;BME280;11076;47.942;11.804;2023-10-31T09:44:15;93254.06;;;20.66;41.51
21828;BME280;11076;47.942;11.804;2023-10-31T09:49:17;93281.47;;;20.78;41.41
21828;BME280;11076;47.942;11.804;2023-10-31T09:54:21;93298.97;;;20.95;41.19
21828;BME280;11076;47.942;11.804;2023-10-31T09:59:25;93318.25;;;21.07;41.34
21828;BME280;11076;47.942;11.804;2023-10-31T10:04:28;93328.72;;;21.22;40.83
21828;BME280;11076;47.942;11.804;2023-10-31T10:09:31;93342.56;;;21.12;40.95
21828;BME280;11076;47.942;11.804;2023-10-31T10:14:34;93337.84;;;21.26;40.84
21828;BME280;11076;47.942;11.804;2023-10-31T10:19:37;93340.13;;;21.33;41.03
21828;BME280;11076;47.942;11.804;2023-10-31T10:24:41;93342.38;;;21.31;40.67
21828;BME280;11076;47.942;11.804;2023-10-31T10:29:44;93323.13;;;21.50;39.90
21828;BME280;11076;47.942;11.804;2023-10-31T10:34:46;93328.44;;;21.55;40.01
21828;BME280;11076;47.942;11.804;2023-10-31T10:39:51;93325.53;;;21.52;40.41
21828;BME280;11076;47.942;11.804;2023-10-31T10:45:03;93335.69;;;22.09;39.14
21828;BME280;11076;47.942;11.804;2023-10-31T10:50:10;93338.47;;;21.86;39.81
21828;BME280;11076;47.942;11.804;2023-10-31T10:55:25;93336.69;;;21.73;39.75
21828;BME280;11076;47.942;11.804;2023-10-31T11:00:28;93331.22;;;22.13;39.30
21828;BME280;11076;47.942;11.804;2023-10-31T11:05:32;93331.22;;;22.13;39.29
21828;BME280;11076;47.942;11.804;2023-10-31T11:10:35;93333.75;;;22.18;39.02
21828;BME280;11076;47.942;11.804;2023-10-31T11:15:38;93337.75;;;22.03;39.73
21828;BME280;11076;47.942;11.804;2023-10-31T11:20:42;93332.06;;;22.31;39.02
21828;BME280;11076;47.942;11.804;2023-10-31T11:25:44;93325.66;;;22.44;38.59
21828;BME280;11076;47.942;11.804;2023-10-31T11:30:52;93315.91;;;22.34;38.89
21828;BME280;11076;47.942;11.804;2023-10-31T11:36:01;93307.72;;;22.52;38.98
21828;BME280;11076;47.942;11.804;2023-10-31T11:41:05;93307.91;;;22.55;38.32
21828;BME280;11076;47.942;11.804;2023-10-31T11:46:22;93310.28;;;22.92;38.11
21828;BME280;11076;47.942;11.804;2023-10-31T11:51:28;93308.06;;;22.76;38.67
21828;BME280;11076;47.942;11.804;2023-10-31T11:56:30;93311.75;;;22.89;38.62
21828;BME280;11076;47.942;11.804;2023-10-31T12:01:33;93311.72;;;23.15;38.42
21828;BME280;11076;47.942;11.804;2023-10-31T12:06:35;93308.19;;;23.23;37.35
21828;BME280;11076;47.942;11.804;2023-10-31T12:11:44;93294.13;;;22.87;38.06
21828;BME280;11076;47.942;11.804;2023-10-31T12:16:47;93287.72;;;22.82;38.31
21828;BME280;11076;47.942;11.804;2023-10-31T12:21:49;93280.81;;;22.68;38.16
21828;BME280;11076;47.942;11.804;2023-10-31T12:26:52;93283.22;;;22.78;38.21
21828;BME280;11076;47.942;11.804;2023-10-31T12:31:54;93294.72;;;23.01;37.76
21828;BME280;11076;47.942;11.804;2023-10-31T12:36:59;93291.22;;;22.92;37.47
21828;BME280;11076;47.942;11.804;2023-10-31T12:42:03;93295.06;;;23.17;37.80
21828;BME280;11076;47.942;11.804;2023-10-31T12:47:07;93295.50;;;23.75;37.40
21828;BME280;11076;47.942;11.804;2023-10-31T12:52:10;93300.16;;;23.27;36.06
21828;BME280;11076;47.942;11.804;2023-10-31T12:57:12;93306.44;;;23.01;37.14
21828;BME280;11076;47.942;11.804;2023-10-31T13:02:18;93321.66;;;23.29;37.27
21828;BME280;11076;47.942;11.804;2023-10-31T13:07:26;93330.66;;;23.03;37.39
21828;BME280;11076;47.942;11.804;2023-10-31T13:12:30;93335.94;;;22.99;37.81
21828;BME280;11076;47.942;11.804;2023-10-31T13:17:32;93351.31;;;22.95;38.40
21828;BME280;11076;47.942;11.804;2023-10-31T13:22:36;93346.69;;;22.87;38.85
21828;BME280;11076;47.942;11.804;2023-10-31T13:27:43;93353.25;;;22.86;39.34
21828;BME280;11076;47.942;11.804;2023-10-31T13:32:46;93365.88;;;22.38;39.64
21828;BME280;11076;47.942;11.804;2023-10-31T13:37:48;93367.16;;;22.50;39.57
21828;BME280;11076;47.942;11.804;2023-10-31T13:42:51;93368.78;;;22.51;39.71
21828;BME280;11076;47.942;11.804;2023-10-31T13:47:53;93379.41;;;22.21;40.17
21828;BME280;11076;47.942;11.804;2023-10-31T13:52:56;93394.38;;;22.32;39.91
21828;BME280;11076;47.942;11.804;2023-10-31T13:57:58;93394.53;;;21.42;40.86
21828;BME280;11076;47.942;11.804;2023-10-31T14:03:01;93408.59;;;21.58;41.06
21828;BME280;11076;47.942;11.804;2023-10-31T14:08:04;93413.84;;;21.54;41.16
21828;BME280;11076;47.942;11.804;2023-10-31T14:13:08;93417.31;;;21.46;41.25
21828;BME280;11076;47.942;11.804;2023-10-31T14:18:10;93427.28;;;21.14;41.50
21828;BME280;11076;47.942;11.804;2023-10-31T14:23:13;93431.56;;;21.29;41.47
21828;BME280;11076;47.942;11.804;2023-10-31T14:28:15;93440.72;;;21.33;41.52
21828;BME280;11076;47.942;11.804;2023-10-31T14:33:18;93432.84;;;21.32;41.77
21828;BME280;11076;47.942;11.804;2023-10-31T14:38:20;93441.88;;;21.41;41.40
21828;BME280;11076;47.942;11.804;2023-10-31T14:43:23;93443.22;;;21.43;41.23
21828;BME280;11076;47.942;11.804;2023-10-31T14:48:25;93437.63;;;21.49;41.29
21828;BME280;11076;47.942;11.804;2023-10-31T14:53:27;93446.25;;;21.28;41.34
21828;BME280;11076;47.942;11.804;2023-10-31T14:58:30;93451.59;;;21.56;41.06
21828;BME280;11076;47.942;11.804;2023-10-31T15:03:32;93466.31;;;21.18;41.23
21828;BME280;11076;47.942;11.804;2023-10-31T15:08:35;93459.03;;;21.05;41.42
21828;BME280;11076;47.942;11.804;2023-10-31T15:13:37;93467.97;;;21.05;41.67
21828;BME280;11076;47.942;11.804;2023-10-31T15:18:40;93463.81;;;20.58;42.40
21828;BME280;11076;47.942;11.804;2023-10-31T15:23:43;93480.44;;;21.06;41.55
21828;BME280;11076;47.942;11.804;2023-10-31T15:28:46;93479.47;;;20.89;42.04
21828;BME280;11076;47.942;11.804;2023-10-31T15:33:48;93486.00;;;21.38;41.38
21828;BME280;11076;47.942;11.804;2023-10-31T15:38:51;93484.25;;;21.19;41.65
21828;BME280;11076;47.942;11.804;2023-10-31T15:43:53;93485.09;;;21.06;41.78
21828;BME280;11076;47.942;11.804;2023-10-31T15:48:56;93491.06;;;21.17;41.54
21828;BME280;11076;47.942;11.804;2023-10-31T15:53:59;93492.78;;;20.90;41.41
21828;BME280;11076;47.942;11.804;2023-10-31T15:59:02;93497.41;;;20.34;42.44
21828;BME280;11076;47.942;11.804;2023-10-31T16:04:04;93503.16;;;20.60;42.07
21828;BME280;11076;47.942;11.804;2023-10-31T16:09:07;93512.47;;;20.13;43.05
21828;BME280;11076;47.942;11.804;2023-10-31T16:14:09;93527.75;;;20.09;42.66
21828;BME280;11076;47.942;11.804;2023-10-31T16:19:14;93530.38;;;20.14;42.43
21828;BME280;11076;47.942;11.804;2023-10-31T16:24:17;93543.72;;;20.10;42.46
21828;BME280;11076;47.942;11.804;2023-10-31T16:29:20;93548.78;;;19.84;42.88
21828;BME280;11076;47.942;11.804;2023-10-31T16:34:23;93544.56;;;19.78;43.15
21828;BME280;11076;47.942;11.804;2023-10-31T16:39:25;93555.97;;;19.75;43.12
21828;BME280;11076;47.942;11.804;2023-10-31T16:44:28;93566.84;;;19.75;43.03
21828;BME280;11076;47.942;11.804;2023-10-31T16:49:30;93566.72;;;20.13;42.12
21828;BME280;11076;47.942;11.804;2023-10-31T16:54:33;93581.56;;;19.88;41.88
21828;BME280;11076;47.942;11.804;2023-10-31T16:59:35;93584.03;;;19.84;41.71
21828;BME280;11076;47.942;11.804;2023-10-31T17:04:38;93598.47;;;19.79;42.02
21828;BME280;11076;47.942;11.804;2023-10-31T17:09:40;93600.69;;;19.58;42.22
21828;BME280;11076;47.942;11.804;2023-10-31T17:14:43;93607.03;;;19.67;42.33
21828;BME280;11076;47.942;11.804;2023-10-31T17:19:45;93618.84;;;19.77;42.00
21828;BME280;11076;47.942;11.804;2023-10-31T17:24:47;93622.38;;;19.77;42.07
21828;BME280;11076;47.942;11.804;2023-10-31T17:29:50;93635.56;;;19.84;42.23
21828;BME280;11076;47.942;11.804;2023-10-31T17:34:53;93649.25;;;20.12;41.68
21828;BME280;11076;47.942;11.804;2023-10-31T17:39:55;93651.84;;;19.84;42.11
21828;BME280;11076;47.942;11.804;2023-10-31T17:44:58;93664.06;;;19.62;42.71
21828;BME280;11076;47.942;11.804;2023-10-31T17:50:00;93677.47;;;19.54;43.25
21828;BME280;11076;47.942;11.804;2023-10-31T17:55:03;93677.69;;;19.95;42.73
21828;BME280;11076;47.942;11.804;2023-10-31T18:00:06;93682.88;;;20.11;42.38
21828;BME280;11076;47.942;11.804;2023-10-31T18:05:14;93697.69;;;20.18;42.83
21828;BME280;11076;47.942;11.804;2023-10-31T18:10:17;93706.56;;;20.24;43.01
21828;BME280;11076;47.942;11.804;2023-10-31T18:15:19;93718.09;;;20.16;43.58
21828;BME280;11076;47.942;11.804;2023-10-31T18:20:22;93707.53;;;20.14;43.69
21828;BME280;11076;47.942;11.804;2023-10-31T18:25:24;93711.03;;;20.15;43.76
21828;BME280;11076;47.942;11.804;2023-10-31T18:30:26;93718.94;;;20.30;43.53
21828;BME280;11076;47.942;11.804;2023-10-31T18:35:29;93728.47;;;20.46;43.50
21828;BME280;11076;47.942;11.804;2023-10-31T18:40:32;93730.13;;;20.10;44.35
21828;BME280;11076;47.942;11.804;2023-10-31T18:45:34;93741.34;;;20.03;44.45
21828;BME280;11076;47.942;11.804;2023-10-31T18:50:37;93738.47;;;20.32;44.08
21828;BME280;11076;47.942;11.804;2023-10-31T18:55:41;93736.97;;;20.59;43.84
21828;BME280;11076;47.942;11.804;2023-10-31T19:00:43;93741.53;;;20.63;43.66
21828;BME280;11076;47.942;11.804;2023-10-31T19:05:46;93751.97;;;20.37;43.99
21828;BME280;11076;47.942;11.804;2023-10-31T19:10:48;93753.88;;;20.18;44.58
21828;BME280;11076;47.942;11.804;2023-10-31T19:15:51;93757.97;;;20.34;44.40
21828;BME280;11076;47.942;11.804;2023-10-31T19:20:53;93761.69;;;20.57;43.99
21828;BME280;11076;47.942;11.804;2023-10-31T19:25:56;93762.94;;;20.46;44.16
21828;BME280;11076;47.942;11.804;2023-10-31T19:30:58;93772.63;;;20.33;44.33
21828;BME280;11076;47.942;11.804;2023-10-31T19:36:00;93772.38;;;20.16;44.74
21828;BME280;11076;47.942;11.804;2023-10-31T19:41:03;93779.22;;;19.89;45.28
21828;BME280;11076;47.942;11.804;2023-10-31T19:46:05;93779.75;;;19.91;45.37
21828;BME280;11076;47.942;11.804;2023-10-31T19:51:09;93792.75;;;20.32;44.69
21828;BME280;11076;47.942;11.804;2023-10-31T19:56:19;93789.81;;;20.10;45.20
21828;BME280;11076;47.942;11.804;2023-10-31T20:01:21;93790.59;;;19.91;45.32
21828;BME280;11076;47.942;11.804;2023-10-31T20:06:24;93803.50;;;19.80;45.74
21828;BME280;11076;47.942;11.804;2023-10-31T20:11:26;93806.63;;;20.12;44.98
21828;BME280;11076;47.942;11.804;2023-10-31T20:16:29;93812.28;;;19.91;45.10
21828;BME280;11076;47.942;11.804;2023-10-31T20:21:31;93816.44;;;19.83;45.15
21828;BME280;11076;47.942;11.804;2023-10-31T20:26:34;93817.50;;;19.88;45.11
21828;BME280;11076;47.942;11.804;2023-10-31T20:31:36;93822.94;;;20.06;44.50
21828;BME280;11076;47.942;11.804;2023-10-31T20:36:39;93810.31;;;19.97;44.53
21828;BME280;11076;47.942;11.804;2023-10-31T20:41:43;93816.63;;;19.68;45.27
21828;BME280;11076;47.942;11.804;2023-10-31T20:46:46;93819.59;;;19.72;45.13
21828;BME280;11076;47.942;11.804;2023-10-31T20:51:49;93822.69;;;19.60;45.09
21828;BME280;11076;47.942;11.804;2023-10-31T20:56:52;93829.91;;;19.70;44.86
21828;BME280;11076;47.942;11.804;2023-10-31T21:01:58;93835.78;;;19.53;45.25
21828;BME280;11076;47.942;11.804;2023-10-31T21:07:01;93838.09;;;19.89;44.71
21828;BME280;11076;47.942;11.804;2023-10-31T21:12:04;93840.13;;;19.78;45.14
21828;BME280;11076;47.942;11.804;2023-10-31T21:17:07;93848.34;;;19.67;44.87
21828;BME280;11076;47.942;11.804;2023-10-31T21:22:09;93853.75;;;19.73;45.13
21828;BME280;11076;47.942;11.804;2023-10-31T21:27:12;93854.00;;;19.95;45.08
21828;BME280;11076;47.942;11.804;2023-10-31T21:32:14;93852.94;;;20.15;44.89
21828;BME280;11076;47.942;11.804;2023-10-31T21:37:16;93854.81;;;20.20;44.63
21828;BME280;11076;47.942;11.804;2023-10-31T21:42:19;93857.56;;;20.15;44.36
21828;BME280;11076;47.942;11.804;2023-10-31T21:47:21;93868.94;;;20.17;44.09
21828;BME280;11076;47.942;11.804;2023-10-31T21:52:24;93859.44;;;19.95;44.76
21828;BME280;11076;47.942;11.804;2023-10-31T21:57:26;93867.56;;;19.95;44.44
21828;BME280;11076;47.942;11.804;2023-10-31T22:02:29;93865.06;;;19.80;44.48
21828;BME280;11076;47.942;11.804;2023-10-31T22:07:32;93864.69;;;19.62;45.01
21828;BME280;11076;47.942;11.804;2023-10-31T22:12:34;93866.75;;;19.76;44.75
21828;BME280;11076;47.942;11.804;2023-10-31T22:17:37;93868.81;;;19.84;44.75
21828;BME280;11076;47.942;11.804;2023-10-31T22:22:39;93869.06;;;20.06;44.41
21828;BME280;11076;47.942;11.804;2023-10-31T22:27:42;93870.84;;;20.16;44.18
21828;BME280;11076;47.942;11.804;2023-10-31T22:32:44;93869.72;;;20.41;43.49
21828;BME280;11076;47.942;11.804;2023-10-31T22:37:47;93876.97;;;20.46;43.15
21828;BME280;11076;47.942;11.804;2023-10-31T22:42:49;93873.31;;;20.56;43.12
21828;BME280;11076;47.942;11.804;2023-10-31T22:47:52;93884.75;;;20.53;43.04
21828;BME280;11076;47.942;11.804;2023-10-31T22:52:54;93889.88;;;20.54;42.79
21828;BME280;11076;47.942;11.804;2023-10-31T22:57:56;93888.69;;;20.65;42.66
21828;BME280;11076;47.942;11.804;2023-10-31T23:03:02;93888.75;;;20.79;42.29
21828;BME280;11076;47.942;11.804;2023-10-31T23:08:05;93896.28;;;20.82;42.15
21828;BME280;11076;47.942;11.804;2023-10-31T23:13:08;93887.91;;;20.79;42.21
21828;BME280;11076;47.942;11.804;2023-10-31T23:18:11;93886.94;;;20.51;42.59
21828;BME280;11076;47.942;11.804;2023-10-31T23:23:13;93887.31;;;20.44;42.64
21828;BME280;11076;47.942;11.804;2023-10-31T23:28:16;93887.38;;;20.39;42.51
21828;BME280;11076;47.942;11.804;2023-10-31T23:33:18;93888.34;;;20.05;42.36
21828;BME280;11076;47.942;11.804;2023-10-31T23:38:21;93883.81;;;19.76;42.58
21828;BME280;11076;47.942;11.804;2023-10-31T23:43:23;93903.16;;;19.64;42.69
21828;BME280;11076;47.942;11.804;2023-10-31T23:48:25;93918.09;;;19.62;42.30
21828;BME280;11076;47.942;11.804;2023-10-31T23:53:28;93919.63;;;19.10;43.12
21828;BME280;11076;47.942;11.804;2023-10-31T23:58:30;93910.09;;;19.17;42.75
